Brianna Louise — WDF9880 — position and weather

sailwx.info

Track history (hours):
 
Tides and Currents Weather Stations Pressure Air Temp Water Temp Dewpoint Dewpoint Depression Visibility Wind Speed Wind Dir Waves Ship Positions

Brianna Louise

Owner: Mnt Vernon LLC, Cape May, NJ. More information available from US FCC via Universal Licensing System and Coast Guard Vessel Documentation Center.

Last reported at 2017-Sep-14 13:13 UTC. Time now 2017-Sep-19 20:31 UTC.
Position N 38°58' W 074°52'.

Length 20 m.

Type: Fishing. MMSI: 367509770.

Date/timePositionNaut miles runAvg speedWind from/ knotsBaromVisibWave heightAir tempDewpointWater temp
2017-Sep-14 13:13N 38°58' W 074°52'0 0.0
2017-Sep-14 12:58N 38°58' W 074°52'0 0.0
2017-Sep-14 10:40N 38°58' W 074°52'0 0.0
2017-Sep-14 10:28N 38°58' W 074°52'0 0.0
2017-Sep-14 09:55N 38°58' W 074°52'0 0.0
2017-Sep-14 09:22N 38°58' W 074°52'0 0.0
2017-Sep-14 08:58N 38°58' W 074°52'0 0.0
2017-Sep-14 08:28N 38°58' W 074°52'0 0.0
2017-Sep-14 07:58N 38°58' W 074°52'0 0.0
2017-Sep-14 07:28N 38°58' W 074°52'0 0.0
2017-Sep-14 06:58N 38°58' W 074°52'0 0.0
2017-Sep-14 06:28N 38°58' W 074°52'0 0.0
2017-Sep-14 05:55N 38°58' W 074°52'0 0.0
2017-Sep-14 05:28N 38°58' W 074°52'0 0.0
2017-Sep-14 04:40N 38°58' W 074°52'0 0.0
2017-Sep-14 04:28N 38°58' W 074°52'0 0.0
2017-Sep-14 03:43N 38°58' W 074°52'48 3.4
2017-Sep-13 13:31N 39°16' W 073°55'2 7.4
2017-Sep-13 13:13N 39°17' W 073°52'2 7.4
2017-Sep-13 13:00N 39°17' W 073°50'4 7.4
2017-Sep-13 12:30N 39°19' W 073°46'4 7.3
2017-Sep-13 11:58N 39°20' W 073°41'6 7.1
2017-Sep-13 11:05N 39°23' W 073°34'1 6.9
2017-Sep-13 10:58N 39°23' W 073°33'4 6.9
2017-Sep-13 10:26N 39°25' W 073°29'3 7.1
2017-Sep-13 09:58N 39°26' W 073°25'3 7.0
2017-Sep-13 09:30N 39°27' W 073°21'3 6.8
2017-Sep-13 09:00N 39°29' W 073°17'3 6.8
2017-Sep-13 08:30N 39°31' W 073°13'3 6.5
2017-Sep-13 08:00N 39°31' W 073°09'3 6.7
2017-Sep-13 07:30N 39°31' W 073°04'3 6.8
2017-Sep-13 07:00N 39°31' W 073°00'3 6.7
2017-Sep-13 06:29N 39°31' W 072°56'3 6.3
2017-Sep-13 06:00N 39°31' W 072°52'2 4.9
2017-Sep-13 05:30N 39°31' W 072°48'1 1.7
2017-Sep-13 04:59N 39°32' W 072°48'2 5.2
2017-Sep-13 04:30N 39°35' W 072°48'1 2.8
2017-Sep-13 04:00N 39°33' W 072°49'2 4.0
2017-Sep-13 03:30N 39°32' W 072°50'3 6.2
2017-Sep-13 02:59N 39°31' W 072°54'4 7.2
2017-Sep-13 02:27N 39°31' W 072°59'4 7.3
2017-Sep-13 01:58N 39°31' W 073°04'4 7.4
2017-Sep-13 01:30N 39°30' W 073°09'6 7.3
2017-Sep-13 00:39N 39°30' W 073°16'1 7.3
2017-Sep-13 00:30N 39°29' W 073°18'4 7.4
2017-Sep-12 23:58N 39°28' W 073°22'4 7.5
2017-Sep-12 23:30N 39°26' W 073°26'26 7.6
2017-Sep-12 20:02N 39°14' W 073°57'  
Track history (hours):
 
Tides and Currents Weather Stations Pressure Air Temp Water Temp Dewpoint Dewpoint Depression Visibility Wind Speed Wind Dir Waves Ship Positions

Brianna Louise

Owner: Mnt Vernon LLC, Cape May, NJ. More information available from US FCC via Universal Licensing System and Coast Guard Vessel Documentation Center.

Last reported at 2017-Sep-14 13:13 UTC. Time now 2017-Sep-19 20:31 UTC.
Position N 38°58' W 074°52'.

Length 20 m.

Type: Fishing. MMSI: 367509770.

Date/timePositionNaut miles runAvg speedWind from/ knotsBaromVisibWave heightAir tempDewpointWater temp
2017-Sep-14 13:13N 38°58' W 074°52'0 0.0
2017-Sep-14 12:58N 38°58' W 074°52'0 0.0
2017-Sep-14 10:40N 38°58' W 074°52'0 0.0
2017-Sep-14 10:28N 38°58' W 074°52'0 0.0
2017-Sep-14 09:55N 38°58' W 074°52'0 0.0
2017-Sep-14 09:22N 38°58' W 074°52'0 0.0
2017-Sep-14 08:58N 38°58' W 074°52'0 0.0
2017-Sep-14 08:28N 38°58' W 074°52'0 0.0
2017-Sep-14 07:58N 38°58' W 074°52'0 0.0
2017-Sep-14 07:28N 38°58' W 074°52'0 0.0
2017-Sep-14 06:58N 38°58' W 074°52'0 0.0
2017-Sep-14 06:28N 38°58' W 074°52'0 0.0
2017-Sep-14 05:55N 38°58' W 074°52'0 0.0
2017-Sep-14 05:28N 38°58' W 074°52'0 0.0
2017-Sep-14 04:40N 38°58' W 074°52'0 0.0
2017-Sep-14 04:28N 38°58' W 074°52'0 0.0
2017-Sep-14 03:43N 38°58' W 074°52'48 3.4
2017-Sep-13 13:31N 39°16' W 073°55'2 7.4
2017-Sep-13 13:13N 39°17' W 073°52'2 7.4
2017-Sep-13 13:00N 39°17' W 073°50'4 7.4
2017-Sep-13 12:30N 39°19' W 073°46'4 7.3
2017-Sep-13 11:58N 39°20' W 073°41'6 7.1
2017-Sep-13 11:05N 39°23' W 073°34'1 6.9
2017-Sep-13 10:58N 39°23' W 073°33'4 6.9
2017-Sep-13 10:26N 39°25' W 073°29'3 7.1
2017-Sep-13 09:58N 39°26' W 073°25'3 7.0
2017-Sep-13 09:30N 39°27' W 073°21'3 6.8
2017-Sep-13 09:00N 39°29' W 073°17'3 6.8
2017-Sep-13 08:30N 39°31' W 073°13'3 6.5
2017-Sep-13 08:00N 39°31' W 073°09'3 6.7
2017-Sep-13 07:30N 39°31' W 073°04'3 6.8
2017-Sep-13 07:00N 39°31' W 073°00'3 6.7
2017-Sep-13 06:29N 39°31' W 072°56'3 6.3
2017-Sep-13 06:00N 39°31' W 072°52'2 4.9
2017-Sep-13 05:30N 39°31' W 072°48'1 1.7
2017-Sep-13 04:59N 39°32' W 072°48'2 5.2
2017-Sep-13 04:30N 39°35' W 072°48'1 2.8
2017-Sep-13 04:00N 39°33' W 072°49'2 4.0
2017-Sep-13 03:30N 39°32' W 072°50'3 6.2
2017-Sep-13 02:59N 39°31' W 072°54'4 7.2
2017-Sep-13 02:27N 39°31' W 072°59'4 7.3
2017-Sep-13 01:58N 39°31' W 073°04'4 7.4
2017-Sep-13 01:30N 39°30' W 073°09'6 7.3
2017-Sep-13 00:39N 39°30' W 073°16'1 7.3
2017-Sep-13 00:30N 39°29' W 073°18'4 7.4
2017-Sep-12 23:58N 39°28' W 073°22'4 7.5
2017-Sep-12 23:30N 39°26' W 073°26'26 7.6
2017-Sep-12 20:02N 39°14' W 073°57'  

Dump ship's entire track history